Time;durP1;ratioP1;P1;durP2;ratioP2;P2;SDS_P1;SDS_P2;PMS_P1;PMS_P2;Temp;Humidity;BMP_temperature;BMP_pressure;BME280_temperature;BME280_humidity;BME280_pressure;Samples;Min_cycle;Max_cycle;Signal;HPM_P1;HPM_P2
2021/04/05 00:01:24;;;;;;;;;;;;;;;5.13;92.55;101144.34;1905439;75;20195;-77
2021/04/05 00:03:53;;;;;;;;;;;;;;;5.12;92.73;101158.53;1901869;75;20143;-79
2021/04/05 00:06:22;;;;;;;;;;;;;;;5.11;92.85;101159.41;1901030;75;21411;-75
2021/04/05 00:08:52;;;;;;;;;;;;;;;5.13;92.96;101149.92;1901157;75;20485;-76
2021/04/05 00:11:20;;;;;;;;;;;;;;;5.11;92.86;101144.82;1901185;75;20215;-76
2021/04/05 00:13:49;;;;;;;;;;;;;;;5.07;92.91;101145.00;1900939;75;20206;-76
2021/04/05 00:16:18;;;;;;;;;;;;;;;5.05;93.05;101151.47;1901104;75;20234;-77
2021/04/05 00:18:47;;;;;;;;;;;;;;;5.06;93.11;101151.87;1901007;75;21183;-76
2021/04/05 00:21:20;;;;;;;;;;;;;;;5.07;93.14;101162.57;1901131;75;20123;-74
2021/04/05 00:23:51;;;;;;;;;;;;;;;5.08;93.14;101153.94;1901078;75;20124;-76
2021/04/05 00:26:20;;;;;;;;;;;;;;;5.10;93.10;101150.88;1900969;75;20278;-77
2021/04/05 00:28:49;;;;;;;;;;;;;;;5.12;93.06;101157.23;1901222;75;20239;-76
2021/04/05 00:31:18;;;;;;;;;;;;;;;5.15;92.96;101151.98;1901435;75;21178;-76
2021/04/05 00:33:47;;;;;;;;;;;;;;;5.16;92.74;101149.81;1901176;75;20238;-77
2021/04/05 00:36:15;;;;;;;;;;;;;;;5.17;92.57;101145.88;1901022;75;20128;-76
2021/04/05 00:38:45;;;;;;;;;;;;;;;5.20;92.48;101140.62;1902009;75;20203;-75
2021/04/05 00:41:14;;;;;;;;;;;;;;;5.21;92.33;101138.45;1903936;75;20274;-76
2021/04/05 00:43:45;;;;;;;;;;;;;;;5.21;92.27;101134.59;1900954;75;21186;-76
2021/04/05 00:46:14;;;;;;;;;;;;;;;5.21;92.24;101134.59;1901111;75;20524;-76
2021/04/05 00:48:41;;;;;;;;;;;;;;;5.23;92.22;101130.70;1901187;75;20128;-76
2021/04/05 00:51:12;;;;;;;;;;;;;;;5.25;92.11;101134.04;1901068;75;20147;-76
2021/04/05 00:53:42;;;;;;;;;;;;;;;5.27;91.98;101136.94;1900767;75;20211;-77
2021/04/05 00:56:09;;;;;;;;;;;;;;;5.32;91.79;101141.49;1901144;75;21180;-77
2021/04/05 00:58:38;;;;;;;;;;;;;;;5.36;91.53;101137.05;1900804;75;20286;-77
2021/04/05 01:01:09;;;;;;;;;;;;;;;5.40;91.21;101133.91;1901204;75;20242;-77
2021/04/05 01:03:39;;;;;;;;;;;;;;;5.40;90.89;101135.20;1900971;75;20155;-76
2021/04/05 01:06:13;;;;;;;;;;;;;;;5.39;90.68;101129.23;1900981;75;20239;-76
2021/04/05 01:08:41;;;;;;;;;;;;;;;5.39;90.51;101125.82;1900935;75;21346;-77
2021/04/05 01:11:11;;;;;;;;;;;;;;;5.37;90.44;101119.42;1900981;75;20525;-76
2021/04/05 01:13:39;;;;;;;;;;;;;;;5.34;90.44;101120.83;1901039;75;20866;-77
2021/04/05 01:16:09;;;;;;;;;;;;;;;5.30;90.47;101121.39;1901003;75;20215;-76
2021/04/05 01:18:39;;;;;;;;;;;;;;;5.27;90.57;101122.79;1904244;75;20200;-77
2021/04/05 01:21:09;;;;;;;;;;;;;;;5.24;90.62;101116.91;1903972;75;21142;-75
2021/04/05 01:23:39;;;;;;;;;;;;;;;5.19;90.74;101113.69;1901274;75;20492;-75
2021/04/05 01:26:07;;;;;;;;;;;;;;;5.17;90.93;101114.20;1901369;75;20182;-77
2021/04/05 01:28:35;;;;;;;;;;;;;;;5.16;91.05;101116.38;1901250;75;20605;-77
2021/04/05 01:31:03;;;;;;;;;;;;;;;5.15;90.87;101114.69;1901276;75;20564;-77
2021/04/05 01:33:36;;;;;;;;;;;;;;;5.13;90.77;101113.91;1901319;75;21148;-76
2021/04/05 01:36:07;;;;;;;;;;;;;;;5.11;90.54;101115.68;1901114;75;20600;-74
2021/04/05 01:38:39;;;;;;;;;;;;;;;5.06;90.34;101110.72;1901313;75;20279;-74
2021/04/05 01:41:11;;;;;;;;;;;;;;;5.02;90.24;101115.58;1901059;75;20294;-74
2021/04/05 01:43:39;;;;;;;;;;;;;;;4.97;89.99;101123.07;1901105;75;20155;-73
2021/04/05 01:46:08;;;;;;;;;;;;;;;4.94;89.83;101124.02;1901255;75;21424;-75
2021/04/05 01:48:37;;;;;;;;;;;;;;;4.90;89.59;101119.03;1901267;75;20262;-76
2021/04/05 01:51:07;;;;;;;;;;;;;;;4.85;89.57;101115.80;1901230;75;20124;-73
2021/04/05 01:53:38;;;;;;;;;;;;;;;4.79;89.57;101114.25;1901211;75;20505;-76
2021/04/05 01:56:07;;;;;;;;;;;;;;;4.74;89.68;101115.72;1901727;75;20147;-75
2021/04/05 01:58:36;;;;;;;;;;;;;;;4.70;89.77;101116.71;1905333;75;21405;-76
2021/04/05 02:01:12;;;;;;;;;;;;;;;4.65;89.91;101110.91;1901859;75;20195;-76
2021/04/05 02:03:39;;;;;;;;;;;;;;;4.60;90.03;101108.07;1901225;75;20494;-76
2021/04/05 02:06:10;;;;;;;;;;;;;;;4.57;90.14;101113.31;1901029;75;20206;-75
2021/04/05 02:08:39;;;;;;;;;;;;;;;4.56;90.25;101119.38;1901069;75;20497;-73
2021/04/05 02:11:10;;;;;;;;;;;;;;;4.53;90.36;101113.86;1901396;75;22232;-75
2021/04/05 02:13:38;;;;;;;;;;;;;;;4.54;90.43;101115.99;1900755;75;20207;-76
2021/04/05 02:16:05;;;;;;;;;;;;;;;4.53;90.31;101119.48;1901154;75;20325;-76
2021/04/05 02:18:33;;;;;;;;;;;;;;;4.53;90.25;101122.05;1901022;75;20132;-73
2021/04/05 02:21:02;;;;;;;;;;;;;;;4.53;90.17;101117.72;1901245;75;20143;-75
2021/04/05 02:23:30;;;;;;;;;;;;;;;4.54;89.91;101117.28;1900962;75;21186;-75
2021/04/05 02:26:09;;;;;;;;;;;;;;;4.55;89.67;101112.10;1901055;75;20584;-76
2021/04/05 02:28:49;;;;;;;;;;;;;;;4.56;89.50;101113.76;1901110;75;20226;-75
2021/04/05 02:31:22;;;;;;;;;;;;;;;4.54;89.36;101119.41;1900983;75;20611;-75
2021/04/05 02:33:53;;;;;;;;;;;;;;;4.56;89.28;101125.80;1901234;75;20125;-76
2021/04/05 02:36:25;;;;;;;;;;;;;;;4.56;89.16;101125.80;1903439;75;21183;-75
2021/04/05 02:38:57;;;;;;;;;;;;;;;4.56;88.91;101131.75;1901645;75;20202;-74
2021/04/05 02:41:26;;;;;;;;;;;;;;;4.57;88.54;101124.88;1898941;75;20124;-76
2021/04/05 02:43:55;;;;;;;;;;;;;;;4.58;88.04;101127.42;1870028;75;20550;-73
2021/04/05 02:46:25;;;;;;;;;;;;;;;4.58;87.70;101122.28;1898905;75;20294;-75
2021/04/05 02:48:54;;;;;;;;;;;;;;;4.58;87.36;101121.43;1898899;75;22136;-75
2021/04/05 02:51:22;;;;;;;;;;;;;;;4.55;86.95;101121.09;1898800;75;20689;-75
2021/04/05 02:53:59;;;;;;;;;;;;;;;4.54;86.38;101128.84;1898940;75;20143;-77
2021/04/05 02:56:28;;;;;;;;;;;;;;;4.52;86.19;101120.36;1898887;75;20218;-75
2021/04/05 02:58:56;;;;;;;;;;;;;;;4.48;85.95;101126.05;1898833;75;20195;-76
2021/04/05 03:01:24;;;;;;;;;;;;;;;4.45;85.99;101128.72;1898982;75;22119;-75
2021/04/05 03:03:57;;;;;;;;;;;;;;;4.42;86.02;101120.27;1899016;75;20120;-76
2021/04/05 03:06:26;;;;;;;;;;;;;;;4.39;85.97;101125.07;1898981;75;20123;-75
2021/04/05 03:08:54;;;;;;;;;;;;;;;4.38;85.84;101129.80;1898873;75;20278;-76
2021/04/05 03:11:22;;;;;;;;;;;;;;;4.37;85.78;101128.12;1898942;75;20214;-75
2021/04/05 03:13:51;;;;;;;;;;;;;;;4.37;85.61;101128.59;1899433;75;21127;-75
2021/04/05 03:16:23;;;;;;;;;;;;;;;4.34;85.46;101127.41;1903020;75;20104;-75
2021/04/05 03:18:53;;;;;;;;;;;;;;;4.30;85.35;101127.95;1900045;75;20513;-75
2021/04/05 03:21:22;;;;;;;;;;;;;;;4.23;85.38;101127.30;1899050;75;20196;-75
2021/04/05 03:23:51;;;;;;;;;;;;;;;4.19;85.43;101124.87;1899647;75;20211;-73
2021/04/05 03:26:19;;;;;;;;;;;;;;;4.14;85.52;101123.75;1899322;75;21398;-76
2021/04/05 03:28:46;;;;;;;;;;;;;;;4.09;85.51;101117.06;1899580;75;20104;-76
2021/04/05 03:31:18;;;;;;;;;;;;;;;4.02;85.57;101117.70;1899515;75;20104;-76
2021/04/05 03:33:57;;;;;;;;;;;;;;;3.96;85.67;101120.47;1900743;75;20104;-76
2021/04/05 03:36:28;;;;;;;;;;;;;;;3.87;85.73;101119.48;1900491;75;20234;-77
2021/04/05 03:38:57;;;;;;;;;;;;;;;3.79;85.94;101120.17;1902295;75;21185;-75
2021/04/05 03:41:44;;;;;;;;;;;;;;;3.73;86.22;101125.50;1902232;75;20167;-75
2021/04/05 03:44:30;;;;;;;;;;;;;;;3.67;86.35;101117.52;1903283;75;20226;-74
2021/04/05 03:47:16;;;;;;;;;;;;;;;3.64;86.49;101115.48;1901214;75;20497;-76
2021/04/05 03:49:51;;;;;;;;;;;;;;;3.60;86.52;101123.75;1900136;75;20317;-76
2021/04/05 03:52:27;;;;;;;;;;;;;;;3.55;86.72;101118.33;1901338;75;21641;-77
2021/04/05 03:54:59;;;;;;;;;;;;;;;3.54;86.87;101120.05;1902200;75;20594;-76
2021/04/05 03:57:32;;;;;;;;;;;;;;;3.52;86.79;101115.42;1902118;75;20139;-76
2021/04/05 04:00:07;;;;;;;;;;;;;;;3.52;86.85;101120.55;1901020;75;20148;-76
2021/04/05 04:02:33;;;;;;;;;;;;;;;3.51;86.61;101116.30;1900524;75;20207;-77
2021/04/05 04:05:11;;;;;;;;;;;;;;;3.50;86.47;101115.08;1901096;75;21242;-77
2021/04/05 04:07:45;;;;;;;;;;;;;;;3.48;86.34;101127.93;1899730;75;20182;-76
2021/04/05 04:10:13;;;;;;;;;;;;;;;3.46;86.37;101122.45;1901035;75;20215;-76
2021/04/05 04:12:44;;;;;;;;;;;;;;;3.43;86.36;101123.39;1900993;75;20158;-75
2021/04/05 04:15:12;;;;;;;;;;;;;;;3.43;86.24;101133.66;1901166;75;20147;-75
2021/04/05 04:17:40;;;;;;;;;;;;;;;3.43;85.96;101136.66;1901084;75;21190;-76
2021/04/05 04:20:13;;;;;;;;;;;;;;;3.44;85.79;101139.63;1901281;75;20540;-74
2021/04/05 04:22:42;;;;;;;;;;;;;;;3.45;85.44;101143.41;1900951;75;20215;-76
2021/04/05 04:25:12;;;;;;;;;;;;;;;3.47;85.12;101142.11;1900674;75;20577;-75
2021/04/05 04:27:42;;;;;;;;;;;;;;;3.46;85.01;101141.70;1901018;75;20219;-76
2021/04/05 04:30:12;;;;;;;;;;;;;;;3.41;85.09;101144.41;1867717;75;21174;-75
2021/04/05 04:32:40;;;;;;;;;;;;;;;3.36;85.38;101148.81;1903421;75;20131;-76
2021/04/05 04:35:12;;;;;;;;;;;;;;;3.33;85.38;101143.78;1904314;75;20516;-76
2021/04/05 04:37:40;;;;;;;;;;;;;;;3.31;85.33;101147.28;1899766;75;20309;-72
2021/04/05 04:40:08;;;;;;;;;;;;;;;3.30;85.11;101143.02;1899117;75;20147;-76
2021/04/05 04:42:38;;;;;;;;;;;;;;;3.31;85.14;101146.00;1899081;75;21188;-74
2021/04/05 04:45:08;;;;;;;;;;;;;;;3.31;85.13;101147.28;1898936;75;20155;-76
2021/04/05 04:47:35;;;;;;;;;;;;;;;3.33;85.11;101145.50;1898909;75;20175;-75
2021/04/05 04:50:05;;;;;;;;;;;;;;;3.37;84.94;101154.80;1899116;75;20558;-75
2021/04/05 04:52:32;;;;;;;;;;;;;;;3.39;84.89;101151.30;1898939;75;20218;-76
2021/04/05 04:55:01;;;;;;;;;;;;;;;3.42;84.60;101153.77;1898932;75;21272;-75
2021/04/05 04:57:28;;;;;;;;;;;;;;;3.42;84.57;101151.64;1899002;75;20108;-75
2021/04/05 04:59:57;;;;;;;;;;;;;;;3.43;84.63;101156.74;1899001;75;20520;-75
2021/04/05 05:02:25;;;;;;;;;;;;;;;3.45;84.63;101156.69;1899048;75;20711;-74
2021/04/05 05:04:53;;;;;;;;;;;;;;;3.48;84.75;101157.88;1899232;75;20561;-73
2021/04/05 05:07:21;;;;;;;;;;;;;;;3.51;84.69;101157.81;1869681;75;21184;-77
2021/04/05 05:09:50;;;;;;;;;;;;;;;3.53;84.55;101159.45;1899621;75;20156;-76
2021/04/05 05:12:17;;;;;;;;;;;;;;;3.56;84.44;101167.05;1900696;75;20258;-76
2021/04/05 05:14:47;;;;;;;;;;;;;;;3.58;84.37;101162.70;1899665;75;20218;-76
2021/04/05 05:17:16;;;;;;;;;;;;;;;3.59;84.17;101163.11;1899431;75;20219;-76
2021/04/05 05:19:44;;;;;;;;;;;;;;;3.62;84.20;101166.02;1869765;75;21295;-76
2021/04/05 05:22:14;;;;;;;;;;;;;;;3.66;84.04;101171.03;1898698;75;20160;-76
2021/04/05 05:24:44;;;;;;;;;;;;;;;3.68;83.74;101166.69;1899013;75;20128;-76
2021/04/05 05:27:12;;;;;;;;;;;;;;;3.72;83.74;101170.84;1898972;75;20263;-76
2021/04/05 05:29:40;;;;;;;;;;;;;;;3.76;83.53;101168.19;1898858;75;20235;-76
2021/04/05 05:32:09;;;;;;;;;;;;;;;3.80;83.04;101171.89;1898952;75;21127;-77
2021/04/05 05:34:39;;;;;;;;;;;;;;;3.84;82.79;101168.34;1898988;75;20497;-77
2021/04/05 05:37:07;;;;;;;;;;;;;;;3.87;82.69;101160.55;1899731;75;20155;-77
2021/04/05 05:39:34;;;;;;;;;;;;;;;3.91;82.48;101159.58;1907875;75;20151;-77
2021/04/05 05:42:10;;;;;;;;;;;;;;;3.97;82.25;101157.26;1907836;75;20166;-76
2021/04/05 05:45:04;;;;;;;;;;;;;;;3.99;82.20;101144.77;1908093;75;21180;-75
2021/04/05 05:48:02;;;;;;;;;;;;;;;4.07;82.19;101153.52;1907796;75;20513;-76
2021/04/05 05:51:02;;;;;;;;;;;;;;;4.16;81.90;101156.64;1838908;75;20231;-78
2021/04/05 05:53:39;;;;;;;;;;;;;;;4.25;81.78;101159.34;1908678;75;20210;-76
2021/04/05 05:56:37;;;;;;;;;;;;;;;4.33;81.31;101159.11;1907852;75;20505;-77
2021/04/05 05:59:20;;;;;;;;;;;;;;;4.40;80.92;101159.31;1907884;75;21177;-76
2021/04/05 06:02:07;;;;;;;;;;;;;;;4.44;80.91;101155.30;1872331;76;20705;-76
2021/04/05 06:04:52;;;;;;;;;;;;;;;4.51;80.70;101154.20;1871115;75;20220;-76
2021/04/05 06:07:26;;;;;;;;;;;;;;;4.59;80.61;101153.97;1869840;76;20212;-78
2021/04/05 06:10:00;;;;;;;;;;;;;;;4.65;80.54;101161.02;1870541;76;20117;-75
2021/04/05 06:12:33;;;;;;;;;;;;;;;4.72;80.40;101157.33;1870287;76;20236;-75
2021/04/05 06:15:16;;;;;;;;;;;;;;;4.82;80.26;101157.86;1872193;76;20662;-76
2021/04/05 06:18:13;;;;;;;;;;;;;;;4.95;79.83;101159.11;1872391;76;20656;-77
2021/04/05 06:20:50;;;;;;;;;;;;;;;5.09;79.54;101163.78;1872473;76;20567;-75
2021/04/05 06:23:48;;;;;;;;;;;;;;;5.24;78.87;101164.52;1872501;76;20213;-76
2021/04/05 06:26:39;;;;;;;;;;;;;;;5.33;78.36;101159.03;1872626;76;22182;-79
2021/04/05 06:29:30;;;;;;;;;;;;;;;5.36;78.13;101159.39;1872529;76;20126;-76
2021/04/05 06:32:11;;;;;;;;;;;;;;;5.42;77.76;101157.44;1846995;76;20393;-79
2021/04/05 06:34:46;;;;;;;;;;;;;;;5.49;77.54;101151.61;1872169;76;20798;-79
2021/04/05 06:37:44;;;;;;;;;;;;;;;5.55;77.31;101147.05;1872268;76;20232;-77
2021/04/05 06:40:15;;;;;;;;;;;;;;;5.62;77.15;101144.64;1866331;77;21192;-79
2021/04/05 06:43:06;;;;;;;;;;;;;;;5.74;76.86;101137.72;1865921;77;20379;-78
2021/04/05 06:45:58;;;;;;;;;;;;;;;5.87;76.11;101137.31;1866644;77;20515;-78
2021/04/05 06:48:39;;;;;;;;;;;;;;;6.00;75.69;101138.51;1865535;76;20507;-77
2021/04/05 06:51:18;;;;;;;;;;;;;;;6.06;75.12;101135.69;1866157;77;20308;-78
2021/04/05 06:54:09;;;;;;;;;;;;;;;6.15;74.75;101139.18;1866144;77;21425;-78
2021/04/05 06:56:56;;;;;;;;;;;;;;;6.25;74.12;101138.72;1852571;77;20201;-77
2021/04/05 06:59:28;;;;;;;;;;;;;;;6.41;73.14;101137.67;1864952;77;20188;-79
2021/04/05 07:02:19;;;;;;;;;;;;;;;6.47;72.59;101136.13;1866037;77;20201;-77
2021/04/05 07:05:06;;;;;;;;;;;;;;;6.56;72.16;101139.61;1866017;77;20220;-79
2021/04/05 07:07:41;;;;;;;;;;;;;;;6.64;71.76;101143.14;1867323;77;21351;-77
2021/04/05 07:10:28;;;;;;;;;;;;;;;6.74;71.23;101141.85;1866453;77;20318;-80
2021/04/05 07:13:06;;;;;;;;;;;;;;;6.86;69.88;101138.77;1864630;76;20241;-79
2021/04/05 07:15:53;;;;;;;;;;;;;;;6.97;69.87;101132.68;1850208;76;20284;-77
2021/04/05 07:18:24;;;;;;;;;;;;;;;7.08;68.99;101132.22;1865323;77;20146;-76
2021/04/05 07:21:05;;;;;;;;;;;;;;;7.15;67.77;101133.16;1866056;77;21258;-76
2021/04/05 07:24:12;;;;;;;;;;;;;;;7.25;67.17;101138.30;1866149;77;20171;-77
2021/04/05 07:26:51;;;;;;;;;;;;;;;7.31;66.24;101141.89;1866030;77;20479;-75
2021/04/05 07:29:40;;;;;;;;;;;;;;;7.39;66.19;101144.14;1866106;76;20610;-76
2021/04/05 07:32:20;;;;;;;;;;;;;;;7.44;65.91;101144.30;1866168;77;20484;-80
2021/04/05 07:34:55;;;;;;;;;;;;;;;7.50;65.66;101148.34;1866594;77;21297;-78
2021/04/05 07:37:37;;;;;;;;;;;;;;;7.54;63.93;101151.18;1865896;76;20213;-78
2021/04/05 07:40:41;;;;;;;;;;;;;;;7.65;62.22;101150.70;1865533;76;20126;-75
2021/04/05 07:43:31;;;;;;;;;;;;;;;7.74;61.48;101154.14;1858765;77;20296;-77
2021/04/05 07:46:33;;;;;;;;;;;;;;;7.88;64.55;101157.75;1837265;77;20316;-78
2021/04/05 07:49:23;;;;;;;;;;;;;;;7.98;64.87;101159.45;1866247;77;21202;-79
2021/04/05 07:52:07;;;;;;;;;;;;;;;8.03;64.88;101157.95;1864518;76;20284;-78
2021/04/05 07:54:36;;;;;;;;;;;;;;;8.08;64.43;101154.22;1848188;75;20104;-78
2021/04/05 07:57:22;;;;;;;;;;;;;;;8.16;63.83;101156.45;1869106;75;20299;-78
2021/04/05 08:00:13;;;;;;;;;;;;;;;8.21;64.00;101159.64;1865546;76;20215;-78
2021/04/05 08:02:57;;;;;;;;;;;;;;;8.24;63.55;101157.75;1873027;75;21185;-79
2021/04/05 08:05:44;;;;;;;;;;;;;;;8.30;63.90;101153.60;1890327;75;20152;-82
2021/04/05 08:08:33;;;;;;;;;;;;;;;8.41;62.83;101161.69;1898688;75;20139;-77
2021/04/05 08:11:13;;;;;;;;;;;;;;;8.46;62.86;101158.41;1898728;75;20561;-77
2021/04/05 08:14:04;;;;;;;;;;;;;;;8.48;63.58;101157.89;1894611;75;20230;-81
2021/04/05 08:16:56;;;;;;;;;;;;;;;8.59;62.71;101157.34;1898901;75;21185;-74
2021/04/05 08:19:27;;;;;;;;;;;;;;;8.68;62.78;101159.46;1898797;75;20246;-74
2021/04/05 08:22:02;;;;;;;;;;;;;;;8.79;61.82;101160.23;1898029;75;20227;-77
2021/04/05 08:24:53;;;;;;;;;;;;;;;8.86;58.62;101159.84;1898433;75;20155;-76
2021/04/05 08:27:41;;;;;;;;;;;;;;;8.92;56.96;101159.98;1898787;75;20139;-76
2021/04/05 08:30:34;;;;;;;;;;;;;;;8.98;56.90;101160.96;1898842;75;20669;-80
2021/04/05 08:33:29;;;;;;;;;;;;;;;9.10;60.52;101164.66;1792780;80;20191;-80
2021/04/05 08:36:10;;;;;;;;;;;;;;;9.15;61.13;101163.98;1792930;80;32460;-72
2021/04/05 08:39:04;;;;;;;;;;;;;;;9.17;62.00;101159.09;1818225;78;20288;-77
2021/04/05 08:41:45;;;;;;;;;;;;;;;9.12;61.86;101162.84;1791204;80;20169;-74
2021/04/05 08:44:38;;;;;;;;;;;;;;;9.15;60.08;101163.53;1790732;80;21364;-78
2021/04/05 08:47:08;;;;;;;;;;;;;;;9.13;60.17;101161.45;1769821;78;20159;-76
2021/04/05 08:49:36;;;;;;;;;;;;;;;9.16;60.32;101163.08;1783585;80;20151;-74
2021/04/05 08:52:07;;;;;;;;;;;;;;;9.22;59.11;101160.16;1780187;80;20140;-74
2021/04/05 08:54:37;;;;;;;;;;;;;;;9.27;58.82;101159.45;1764797;80;20138;-72
2021/04/05 08:57:14;;;;;;;;;;;;;;;9.31;57.07;101148.02;1790567;80;20950;-78
2021/04/05 08:59:51;;;;;;;;;;;;;;;9.27;55.68;101144.75;1770896;80;20194;-77
2021/04/05 09:02:20;;;;;;;;;;;;;;;9.24;55.91;101149.25;1789400;80;20497;-76
2021/04/05 09:04:48;;;;;;;;;;;;;;;9.33;55.29;101141.84;1767515;80;20285;-74
2021/04/05 09:07:33;;;;;;;;;;;;;;;9.37;50.49;101143.35;1759967;80;20270;-73
2021/04/05 09:10:06;;;;;;;;;;;;;;;9.40;51.76;101137.17;1759523;81;21126;-77
2021/04/05 09:12:37;;;;;;;;;;;;;;;9.49;51.74;101136.67;1760466;80;20255;-76
2021/04/05 09:15:25;;;;;;;;;;;;;;;9.58;49.97;101128.39;1724778;83;20222;-77
2021/04/05 09:18:20;;;;;;;;;;;;;;;9.65;51.03;101127.14;1706122;83;20211;-77
2021/04/05 09:21:25;;;;;;;;;;;;;;;9.73;45.46;101119.77;1700571;84;20301;-75
2021/04/05 09:24:16;;;;;;;;;;;;;;;9.78;43.58;101126.02;1718078;82;21195;-76
2021/04/05 09:27:05;;;;;;;;;;;;;;;9.78;43.48;101120.83;1678795;83;20275;-76
2021/04/05 09:29:43;;;;;;;;;;;;;;;9.82;44.95;101120.59;1700973;84;20153;-78
2021/04/05 09:32:27;;;;;;;;;;;;;;;9.86;46.21;101113.48;1701275;83;20306;-76
2021/04/05 09:35:11;;;;;;;;;;;;;;;9.98;44.44;101121.41;1702012;84;20302;-77
2021/04/05 09:38:19;;;;;;;;;;;;;;;10.07;43.95;101124.77;1693695;84;21203;-77
2021/04/05 09:41:17;;;;;;;;;;;;;;;10.09;44.53;101124.66;1683760;85;20204;-81
2021/04/05 09:43:58;;;;;;;;;;;;;;;10.14;46.50;101121.86;1710815;83;20223;-77
2021/04/05 09:47:03;;;;;;;;;;;;;;;10.25;46.25;101112.98;1716758;83;20235;-76
2021/04/05 09:50:12;;;;;;;;;;;;;;;10.34;48.04;101120.27;1715620;83;20136;-77
2021/04/05 09:52:54;;;;;;;;;;;;;;;11.08;43.89;101119.70;1653604;86;22145;-78
2021/04/05 09:55:25;;;;;;;;;;;;;;;12.23;40.77;101121.48;1653552;86;20234;-77
2021/04/05 09:58:02;;;;;;;;;;;;;;;13.19;40.81;101113.22;1683387;83;20848;-81
2021/04/05 10:00:30;;;;;;;;;;;;;;;14.19;36.51;101108.58;1715294;83;20273;-77
2021/04/05 10:03:04;;;;;;;;;;;;;;;14.87;36.13;101106.52;1715732;83;20487;-75
2021/04/05 10:05:39;;;;;;;;;;;;;;;15.71;37.88;101106.33;1714788;83;22142;-75
2021/04/05 10:08:07;;;;;;;;;;;;;;;16.37;33.15;101107.83;1715591;83;20313;-75
2021/04/05 10:10:35;;;;;;;;;;;;;;;16.86;30.05;101102.44;1662119;83;20160;-80
2021/04/05 10:13:06;;;;;;;;;;;;;;;17.35;28.27;101096.42;1687967;83;20152;-77
2021/04/05 10:15:38;;;;;;;;;;;;;;;17.94;30.13;101091.14;1715024;83;20285;-76
2021/04/05 10:18:13;;;;;;;;;;;;;;;18.94;30.00;101088.44;1715416;83;21439;-75
2021/04/05 10:20:48;;;;;;;;;;;;;;;19.86;28.29;101086.53;1692161;83;20219;-76
2021/04/05 10:23:22;;;;;;;;;;;;;;;20.22;28.27;101089.49;1710232;84;20313;-79
2021/04/05 10:25:59;;;;;;;;;;;;;;;21.08;27.62;101093.02;1710226;84;20255;-76
2021/04/05 10:28:31;;;;;;;;;;;;;;;21.38;26.37;101087.20;1704095;84;20497;-77
2021/04/05 10:31:02;;;;;;;;;;;;;;;21.49;25.54;101076.36;1710419;84;21367;-81
2021/04/05 10:33:36;;;;;;;;;;;;;;;21.51;25.84;101076.17;1711397;84;20508;-77
2021/04/05 10:36:09;;;;;;;;;;;;;;;21.53;24.34;101072.41;1682517;85;20306;-77
2021/04/05 10:38:38;;;;;;;;;;;;;;;21.59;24.36;101074.40;1682942;85;20270;-77
2021/04/05 10:41:09;;;;;;;;;;;;;;;21.30;23.28;101069.20;1688763;84;20567;-78
2021/04/05 10:43:40;;;;;;;;;;;;;;;20.95;24.76;101074.15;1702365;84;21206;-78
2021/04/05 10:46:16;;;;;;;;;;;;;;;20.96;24.07;101064.73;1710323;84;20179;-81
2021/04/05 10:48:50;;;;;;;;;;;;;;;21.03;24.17;101071.53;1696850;82;20601;-76
2021/04/05 10:51:27;;;;;;;;;;;;;;;20.63;24.45;101081.89;1696654;84;20362;-77
2021/04/05 10:54:01;;;;;;;;;;;;;;;20.39;24.38;101064.12;1711735;84;20170;-76
2021/04/05 10:56:29;;;;;;;;;;;;;;;20.50;24.65;101062.04;1694301;84;21204;-79
2021/04/05 10:59:14;;;;;;;;;;;;;;;20.64;24.45;101061.14;1694012;83;20229;-81
2021/04/05 11:01:53;;;;;;;;;;;;;;;21.10;24.23;101064.67;1710508;84;20494;-81
2021/04/05 11:04:18;;;;;;;;;;;;;;;20.75;23.31;101055.57;1709521;83;20149;-79
2021/04/05 11:06:48;;;;;;;;;;;;;;;20.26;24.18;101056.59;1685809;84;20528;-76
2021/04/05 11:09:16;;;;;;;;;;;;;;;20.29;24.59;101052.36;1683186;85;22028;-81
2021/04/05 11:11:44;;;;;;;;;;;;;;;20.25;23.31;101053.61;1683222;85;20190;-77
2021/04/05 11:14:16;;;;;;;;;;;;;;;19.80;24.39;101038.41;1695004;84;20181;-81
2021/04/05 11:16:52;;;;;;;;;;;;;;;19.80;24.64;101043.68;1701162;84;20202;-77
2021/04/05 11:19:30;;;;;;;;;;;;;;;19.66;25.21;101036.30;1708096;84;20221;-79
2021/04/05 11:21:59;;;;;;;;;;;;;;;19.83;26.50;101029.72;1701271;84;20607;-76
2021/04/05 11:24:31;;;;;;;;;;;;;;;20.06;24.80;101034.86;1711162;84;20277;-80
2021/04/05 11:27:01;;;;;;;;;;;;;;;19.87;25.05;101023.67;1711110;84;20186;-78
2021/04/05 11:29:30;;;;;;;;;;;;;;;19.60;25.61;101027.69;1698440;84;20255;-78
2021/04/05 11:31:58;;;;;;;;;;;;;;;19.30;25.95;101018.33;1706902;84;20278;-82
2021/04/05 11:34:30;;;;;;;;;;;;;;;19.53;26.11;101015.12;1705694;84;21375;-81
2021/04/05 11:37:07;;;;;;;;;;;;;;;20.17;25.47;101013.17;1682260;84;20676;-78
2021/04/05 11:39:34;;;;;;;;;;;;;;;20.33;24.51;101013.31;1679011;85;20502;-78
2021/04/05 11:42:03;;;;;;;;;;;;;;;19.89;25.74;101008.52;1698697;84;20320;-79
2021/04/05 11:44:43;;;;;;;;;;;;;;;19.51;26.58;101001.30;1674725;84;20217;-77
2021/04/05 11:47:15;;;;;;;;;;;;;;;19.16;26.35;100995.14;1676818;85;21199;-79
2021/04/05 11:49:43;;;;;;;;;;;;;;;18.91;25.99;101011.14;1676889;85;20415;-78
2021/04/05 11:52:19;;;;;;;;;;;;;;;18.28;26.45;100996.97;1677267;84;20239;-78
2021/04/05 11:54:56;;;;;;;;;;;;;;;18.04;27.28;100993.48;1677206;85;20489;-78
2021/04/05 11:57:29;;;;;;;;;;;;;;;17.94;27.22;100997.92;1701755;84;20293;-76
2021/04/05 12:00:00;;;;;;;;;;;;;;;17.64;27.54;100993.67;1705188;84;21250;-74
2021/04/05 12:02:33;;;;;;;;;;;;;;;17.37;27.79;100990.38;1711831;84;20290;-76
2021/04/05 12:05:06;;;;;;;;;;;;;;;17.36;27.95;100997.05;1709436;84;20305;-76
2021/04/05 12:07:36;;;;;;;;;;;;;;;17.26;28.16;100988.38;1692329;84;20227;-77
2021/04/05 12:10:07;;;;;;;;;;;;;;;17.22;28.78;100976.02;1682076;84;20240;-74
2021/04/05 12:12:39;;;;;;;;;;;;;;;17.24;28.82;100983.25;1711993;84;21147;-78
2021/04/05 12:15:12;;;;;;;;;;;;;;;16.86;28.10;100969.58;1709578;84;20206;-78
2021/04/05 12:17:43;;;;;;;;;;;;;;;16.70;28.74;100958.77;1710969;84;20126;-77
2021/04/05 12:20:14;;;;;;;;;;;;;;;16.50;28.86;100962.23;1709607;84;20135;-78
2021/04/05 12:22:42;;;;;;;;;;;;;;;16.16;29.40;100956.91;1677261;84;20199;-78
2021/04/05 12:25:10;;;;;;;;;;;;;;;16.00;29.73;100964.39;1710885;84;22220;-78
2021/04/05 12:27:39;;;;;;;;;;;;;;;15.98;29.93;100962.39;1713130;84;20178;-82
2021/04/05 12:30:24;;;;;;;;;;;;;;;16.02;29.87;100963.30;1710419;84;20221;-80
2021/04/05 12:32:43;;;;;;;;;;;;;;;16.17;29.02;100954.18;1711470;84;20536;-75
2021/04/05 12:35:16;;;;;;;;;;;;;;;16.17;29.88;100945.49;1683813;84;20234;-77
2021/04/05 12:37:44;;;;;;;;;;;;;;;16.23;29.89;100948.42;1711562;82;21397;-76
2021/04/05 12:40:13;;;;;;;;;;;;;;;15.95;30.21;100946.48;1676577;84;20194;-80
2021/04/05 12:42:41;;;;;;;;;;;;;;;15.89;30.12;100941.73;1688875;85;20135;-77
2021/04/05 12:45:11;;;;;;;;;;;;;;;15.97;30.65;100935.86;1688467;85;20266;-77
2021/04/05 12:47:40;;;;;;;;;;;;;;;16.17;30.19;100939.78;1716571;83;20222;-76
2021/04/05 12:50:11;;;;;;;;;;;;;;;16.27;29.85;100935.39;1716342;82;21048;-77
2021/04/05 12:52:40;;;;;;;;;;;;;;;16.31;30.26;100930.25;1715920;83;20500;-79
2021/04/05 12:55:11;;;;;;;;;;;;;;;16.11;31.24;100919.36;1716051;83;20324;-78
2021/04/05 12:57:41;;;;;;;;;;;;;;;16.11;30.68;100922.45;1716580;82;20234;-76
2021/04/05 13:00:21;;;;;;;;;;;;;;;16.11;30.21;100932.45;1716450;83;20233;-77
2021/04/05 13:02:59;;;;;;;;;;;;;;;15.79;31.00;100924.66;1716532;83;21449;-77
2021/04/05 13:05:40;;;;;;;;;;;;;;;15.52;31.87;100915.66;1714972;83;20505;-79
2021/04/05 13:08:15;;;;;;;;;;;;;;;15.17;32.45;100922.43;1695449;83;20285;-78
2021/04/05 13:10:56;;;;;;;;;;;;;;;14.81;32.67;100923.12;1716130;83;20273;-77
2021/04/05 13:13:26;;;;;;;;;;;;;;;14.53;33.96;100911.88;1717131;83;20325;-78
2021/04/05 13:16:03;;;;;;;;;;;;;;;14.44;33.93;100905.25;1716836;83;22286;-75
2021/04/05 13:18:34;;;;;;;;;;;;;;;14.41;34.32;100907.63;1713518;83;20431;-76
2021/04/05 13:21:05;;;;;;;;;;;;;;;14.48;34.17;100903.59;1717231;83;20130;-77
2021/04/05 13:23:38;;;;;;;;;;;;;;;14.97;34.28;100897.06;1716792;83;20250;-77